Airfield :
LOGIN :

Register | Disclaimer

   EN    FR    IT 

 










Legend :    VFR   Marginal VFR   IFR   Intensive IFR   Very Intensive IFR
Visi :
Ceiling :
>= 8 km
>= 3000ft
5 to 8 km
1000 to 3000 ft
1500m to 5 km
500 to 1000 ft
800 to 1500m
200 to 500 ft
< 800m
< 200 ft
Symbols :   Thunderstorms  Fog  Heavy snow  Heavy precipitations  Wind > 20 kt
SIGMETs :     Misc.  Thunderstorms  Icing  Turbulence  Mountain Waves  Volcanic Ashes







- Airport Elevation : 659 ft
- IATA code : LYN
- Download approach charts


LFLY - Lyon Bron

CURRENT METAR :
  • 301600Z AUTO 18022KT 150V210 CAVOK 17/04 Q1005 TEMPO 18025G40KT

EXPIRED METARs :
  • 301530Z AUTO 18020G30KT 150V210 CAVOK 17/03 Q1005 TEMPO 18025G40KT
  • 301500Z AUTO 17018G30KT 150V210 CAVOK 17/04 Q1006 TEMPO 18025G40KT
  • 301430Z AUTO 20017KT CAVOK 16/04 Q1006 TEMPO 18025G40KT
  • 301400Z AUTO 19018KT CAVOK 17/03 Q1007 TEMPO 18025G40KT

TAF TAF LFLY
Valid from the 30 at 12:00 until the 01 at 12:00 UTC


301100Z 3012/0112 18020G30KT CAVOK
PROB40
TEMPO 3012/3020 18025G40KT
BECMG 3018/3020 9999 -RA OVC030
PROB40
TEMPO 3020/3022 27018G30KT 4000 RA SCT015 BKN030 FEW050CB
BECMG 3021/3023 14008KT
BECMG 0104/0106 NSW
BECMG 0109/0111 34006KT
PROB30
TEMPO 0109/0112 5000 SHRA BKN030TCU
ATIS : +33 4 72 15 87 96
No reported NOTAMs for that airfield.
1 SIGMET reported for the Marseille FIR (LFMM) :
 
Severe turbulence
LFMM SIGMET 4 VALID 301600/302000 LFPW
LFMM MARSEILLE FIR/UIR SEV TURB FCST WI N4215 E00345 - N4215 E00230 - N4630 E00300 - N4630 E00515 - N4330 E00515 SFC/FL070 STNR NC=



MET'MAP, your aeronautical weather chart ! - Copyright ORBIFLY December 2007 - Disclaimer

ORBIFLY MET'MAP TEAM :

Programming & Development : Alexandra Zaïnal
Concept & Development : Baudouin d'Aumeries
Co-Development & Prog : Marc-Olivier Méhu
Technical & hardware support : Manuel Goepfert

Contact : metmap@orbifly.com




SOURCES & CREDITS :

   NOAA